createdAt,value
2019-05-01T00:00:50.867Z,91.37
2019-05-01T00:01:50.843Z,91.93
2019-05-01T00:02:50.829Z,91.82
2019-05-01T00:03:50.823Z,91.78
2019-05-01T00:04:50.810Z,91.57
2019-05-01T00:05:50.815Z,91.88
2019-05-01T00:06:50.785Z,91.82
2019-05-01T00:07:50.779Z,91.41
2019-05-01T00:08:50.762Z,91.57
2019-05-01T00:09:50.759Z,91.37
2019-05-01T00:10:50.754Z,91.78
2019-05-01T00:11:50.733Z,91.57
2019-05-01T00:12:50.721Z,91.57
2019-05-01T00:13:50.711Z,91.37
2019-05-01T00:14:50.694Z,91.67
2019-05-01T00:15:50.703Z,91.57
2019-05-01T00:16:50.673Z,91.57
2019-05-01T00:17:50.670Z,91.88
2019-05-01T00:18:50.650Z,91.67
2019-05-01T00:19:50.644Z,91.67
2019-05-01T00:20:50.642Z,91.27
2019-05-01T00:21:50.622Z,91.06
2019-05-01T00:22:50.607Z,91.06
2019-05-01T00:23:50.602Z,90.75
2019-05-01T00:24:50.587Z,90.95
2019-05-01T00:25:50.591Z,90.75
2019-05-01T00:26:50.562Z,91.16
2019-05-01T00:27:50.560Z,90.85
2019-05-01T00:28:50.539Z,91.27
2019-05-01T00:29:50.538Z,91.06
2019-05-01T00:30:50.536Z,91.27
2019-05-01T00:31:50.510Z,90.95
2019-05-01T00:32:50.494Z,91.27
2019-05-01T00:33:50.488Z,91.37
2019-05-01T00:34:50.481Z,90.95
2019-05-01T00:35:50.484Z,90.75
2019-05-01T00:36:50.450Z,90.75
2019-05-01T00:37:50.444Z,90.65
2019-05-01T00:38:50.429Z,90.85
2019-05-01T00:39:50.424Z,90.75
2019-05-01T00:40:50.423Z,90.75
2019-05-01T00:41:50.399Z,90.65
2019-05-01T00:42:50.384Z,90.65
2019-05-01T00:43:50.378Z,90.03
2019-05-01T00:44:50.361Z,91.00
2019-05-01T00:45:50.369Z,91.47
2019-05-01T00:46:50.344Z,90.75
2019-05-01T00:47:50.336Z,90.75
2019-05-01T00:48:50.316Z,90.65
2019-05-01T00:49:50.309Z,91.10
2019-05-01T00:50:50.318Z,90.95
2019-05-01T00:51:50.291Z,91.47
2019-05-01T00:52:50.286Z,91.10
2019-05-01T00:53:50.270Z,90.89
2019-05-01T00:54:50.249Z,90.18
2019-05-01T00:55:50.269Z,90.69
2019-05-01T00:56:50.229Z,90.38
2019-05-01T00:57:50.225Z,90.80
2019-05-01T00:58:50.208Z,91.00
2019-05-01T00:59:50.199Z,90.80
2019-05-01T01:00:50.200Z,90.80
2019-05-01T01:01:50.177Z,90.38
2019-05-01T01:02:50.161Z,90.80
2019-05-01T01:03:50.155Z,91.10
2019-05-01T01:04:50.142Z,90.48
2019-05-01T01:05:50.145Z,90.69
2019-05-01T01:06:50.117Z,91.00
2019-05-01T01:07:50.116Z,90.80
2019-05-01T01:08:50.096Z,90.59
2019-05-01T01:09:50.092Z,90.80
2019-05-01T01:10:50.086Z,91.10
2019-05-01T01:11:50.067Z,91.41
2019-05-01T01:12:50.050Z,91.51
2019-05-01T01:13:50.044Z,91.31
2019-05-01T01:14:50.028Z,91.10
2019-05-01T01:15:50.034Z,91.10
2019-05-01T01:16:50.006Z,90.89
2019-05-01T01:17:50.001Z,90.80
2019-05-01T01:18:49.983Z,90.73
2019-05-01T01:19:49.977Z,91.04
2019-05-01T01:20:49.963Z,91.45
2019-05-01T01:21:49.970Z,91.04
2019-05-01T01:22:49.938Z,90.73
2019-05-01T01:23:49.935Z,91.04
2019-05-01T01:24:49.925Z,90.83
2019-05-01T01:25:49.910Z,91.10
2019-05-01T01:26:49.912Z,91.10
2019-05-01T01:27:49.930Z,90.94
2019-05-01T01:28:49.873Z,90.73
2019-05-01T01:29:49.871Z,90.69
2019-05-01T01:30:56.211Z,90.38
2019-05-01T01:31:50.859Z,90.69
2019-05-01T01:32:49.829Z,90.80
2019-05-01T01:33:49.821Z,91.00
2019-05-01T01:34:49.806Z,91.00
2019-05-01T01:35:49.799Z,90.59
2019-05-01T01:36:49.796Z,90.69
2019-05-01T01:37:49.775Z,90.38
2019-05-01T01:38:49.762Z,90.28
2019-05-01T01:39:49.762Z,90.83
2019-05-01T01:40:49.738Z,90.69
2019-05-01T01:41:49.744Z,91.10
2019-05-01T01:42:49.715Z,90.48
2019-05-01T01:43:49.711Z,90.80
2019-05-01T01:44:49.692Z,90.80
2019-05-01T01:45:49.686Z,90.94
2019-05-01T01:46:49.685Z,90.69
2019-05-01T01:47:49.664Z,90.73
2019-05-01T01:48:49.652Z,90.83
2019-05-01T01:49:49.648Z,90.53
2019-05-01T01:50:49.633Z,90.73
2019-05-01T01:51:49.635Z,91.14
2019-05-01T01:52:49.606Z,91.14
2019-05-01T01:53:49.597Z,90.94
2019-05-01T01:54:49.584Z,91.25
2019-05-01T01:55:49.575Z,91.60
2019-05-01T01:56:49.576Z,91.29
2019-05-01T01:57:49.553Z,91.14
2019-05-01T01:58:49.537Z,91.25
2019-05-01T01:59:49.533Z,91.70
2019-05-01T02:00:49.526Z,91.39
2019-05-01T02:01:49.533Z,91.14
2019-05-01T02:02:49.493Z,91.14
2019-05-01T02:03:49.486Z,91.29
2019-05-01T02:04:49.476Z,91.08
2019-05-01T02:05:49.467Z,91.19
2019-05-01T02:06:49.463Z,91.80
2019-05-01T02:07:49.442Z,91.25
2019-05-01T02:08:56.366Z,91.45
2019-05-01T02:09:50.422Z,91.86
2019-05-01T02:10:49.406Z,91.86
2019-05-01T02:11:49.411Z,91.76
2019-05-01T02:12:49.388Z,90.73
2019-05-01T02:13:49.374Z,91.35
2019-05-01T02:14:49.359Z,91.45
2019-05-01T02:15:49.354Z,91.14
2019-05-01T02:16:49.351Z,90.73
2019-05-01T02:17:49.331Z,90.83
2019-05-01T02:18:49.316Z,90.67
2019-05-01T02:19:49.311Z,90.83
2019-05-01T02:20:49.292Z,90.32
2019-05-01T02:21:49.301Z,90.83
2019-05-01T02:22:49.273Z,90.78
2019-05-01T02:23:49.267Z,90.98
2019-05-01T02:24:49.249Z,90.57
2019-05-01T02:25:49.242Z,91.04
2019-05-01T02:26:49.240Z,90.42
2019-05-01T02:27:49.218Z,90.16
2019-05-01T02:28:49.203Z,90.16
2019-05-01T02:29:49.204Z,90.16
2019-05-01T02:30:49.182Z,90.47
2019-05-01T02:31:49.194Z,90.26
2019-05-01T02:32:49.164Z,89.85
2019-05-01T02:33:49.158Z,90.06
2019-05-01T02:34:49.140Z,89.95
2019-05-01T02:35:49.132Z,90.09
2019-05-01T02:36:49.132Z,90.30
2019-05-01T02:37:49.111Z,90.47
2019-05-01T02:38:49.097Z,90.72
2019-05-01T02:39:49.087Z,90.47
2019-05-01T02:40:49.076Z,90.92
2019-05-01T02:41:49.088Z,90.81
2019-05-01T02:42:49.049Z,90.78
2019-05-01T02:43:49.042Z,90.92
2019-05-01T02:44:49.029Z,90.92
2019-05-01T02:45:49.025Z,90.92
2019-05-01T02:46:49.025Z,90.98
2019-05-01T02:47:49.013Z,90.81
2019-05-01T02:48:52.527Z,91.33
2019-05-01T02:49:48.975Z,90.81
2019-05-01T02:50:48.960Z,90.61
2019-05-01T02:51:48.959Z,90.92
2019-05-01T02:52:48.957Z,91.13
2019-05-01T02:53:48.931Z,91.23
2019-05-01T02:54:48.928Z,90.92
2019-05-01T02:55:48.912Z,91.02
2019-05-01T02:56:48.896Z,90.98
2019-05-01T02:57:48.908Z,91.29
2019-05-01T02:58:48.874Z,90.98
2019-05-01T02:59:48.865Z,91.39
2019-05-01T03:00:48.850Z,91.29
2019-05-01T03:01:48.849Z,91.64
2019-05-01T03:02:48.841Z,91.39
2019-05-01T03:03:48.825Z,91.33
2019-05-01T03:04:48.805Z,91.13
2019-05-01T03:05:48.805Z,91.23
2019-05-01T03:06:48.783Z,90.81
2019-05-01T03:07:48.798Z,91.08
2019-05-01T03:08:48.761Z,91.02
2019-05-01T03:09:48.785Z,91.74
2019-05-01T03:10:48.741Z,91.08
2019-05-01T03:11:48.732Z,90.88
2019-05-01T03:12:48.735Z,90.88
2019-05-01T03:13:48.713Z,91.80
2019-05-01T03:14:48.699Z,91.19
2019-05-01T03:15:48.689Z,91.19
2019-05-01T03:16:48.708Z,91.60
2019-05-01T03:17:48.683Z,91.19
2019-05-01T03:18:48.651Z,91.19
2019-05-01T03:19:48.644Z,90.67
2019-05-01T03:20:48.636Z,90.78
2019-05-01T03:21:48.625Z,90.78
2019-05-01T03:22:48.626Z,91.19
2019-05-01T03:23:48.601Z,91.08
2019-05-01T03:24:48.589Z,91.49
2019-05-01T03:25:48.581Z,91.39
2019-05-01T03:26:48.568Z,91.60
2019-05-01T03:27:48.574Z,91.08
2019-05-01T03:28:48.542Z,91.39
2019-05-01T03:29:48.532Z,91.19
2019-05-01T03:30:48.519Z,91.08
2019-05-01T03:32:14.105Z,91.19
2019-05-01T03:32:49.511Z,91.29
2019-05-01T03:33:48.511Z,91.08
2019-05-01T03:34:52.568Z,90.78
2019-05-01T03:35:48.468Z,90.78
2019-05-01T03:36:48.452Z,90.57
2019-05-01T03:37:48.458Z,90.78
2019-05-01T03:38:48.430Z,91.19
2019-05-01T03:39:48.425Z,90.88
2019-05-01T03:40:48.412Z,90.32
2019-05-01T03:41:48.414Z,90.67
2019-05-01T03:42:48.407Z,90.88
2019-05-01T03:43:48.385Z,90.98
2019-05-01T03:44:48.368Z,90.47
2019-05-01T03:45:48.368Z,90.36
2019-05-01T03:46:48.342Z,89.44
2019-05-01T03:47:48.352Z,90.16
2019-05-01T03:48:48.320Z,89.75
2019-05-01T03:49:48.318Z,89.85
2019-05-01T03:50:48.297Z,89.44
2019-05-01T03:51:48.296Z,90.26
2019-05-01T03:52:48.293Z,90.06
2019-05-01T03:53:48.268Z,89.75
2019-05-01T03:54:48.260Z,89.95
2019-05-01T03:55:48.247Z,89.54
2019-05-01T03:56:48.232Z,89.85
2019-05-01T03:57:48.244Z,89.44
2019-05-01T03:58:48.213Z,89.75
2019-05-01T03:59:48.201Z,89.64
2019-05-01T04:00:48.193Z,89.75
2019-05-01T04:01:48.182Z,89.85
2019-05-01T04:02:48.179Z,89.81
2019-05-01T04:03:48.159Z,89.75
2019-05-01T04:04:48.147Z,89.54
2019-05-01T04:05:48.144Z,89.64
2019-05-01T04:06:48.125Z,89.95
2019-05-01T04:07:48.136Z,89.75
2019-05-01T04:08:48.112Z,90.16
2019-05-01T04:09:48.101Z,90.16
2019-05-01T04:10:48.078Z,89.03
2019-05-01T04:11:48.074Z,89.03
2019-05-01T04:12:48.070Z,89.75
2019-05-01T04:13:48.062Z,89.75
2019-05-01T04:14:48.033Z,90.16
2019-05-01T04:15:48.025Z,89.54
2019-05-01T04:16:48.014Z,89.64
2019-05-01T04:17:48.005Z,89.50
2019-05-01T04:18:48.009Z,89.44
2019-05-01T04:19:47.981Z,89.60
2019-05-01T04:20:47.967Z,89.13
2019-05-01T04:21:47.964Z,89.40
2019-05-01T04:22:47.944Z,89.50
2019-05-01T04:23:47.951Z,89.13
2019-05-01T04:24:47.923Z,89.09
2019-05-01T04:25:47.918Z,88.98
2019-05-01T04:26:47.901Z,88.82
2019-05-01T04:27:47.892Z,88.82
2019-05-01T04:28:47.893Z,88.92
2019-05-01T04:29:47.884Z,88.82
2019-05-01T04:30:47.855Z,88.98
2019-05-01T04:31:47.854Z,88.78
2019-05-01T04:32:52.646Z,88.47
2019-05-01T04:33:48.844Z,88.17
2019-05-01T04:34:47.816Z,88.47
2019-05-01T04:35:47.806Z,87.85
2019-05-01T04:36:47.791Z,87.96
2019-05-01T04:37:47.786Z,88.17
2019-05-01T04:38:47.780Z,87.75
2019-05-01T04:39:47.761Z,88.27
2019-05-01T04:40:47.755Z,87.75
2019-05-01T04:41:47.739Z,87.45
2019-05-01T04:42:47.727Z,87.45
2019-05-01T04:43:47.729Z,87.45
2019-05-01T04:44:47.704Z,87.34
2019-05-01T04:45:47.696Z,86.83
2019-05-01T04:46:47.686Z,87.45
2019-05-01T04:47:47.674Z,87.40
2019-05-01T04:48:47.670Z,87.51
2019-05-01T04:49:47.652Z,87.34
2019-05-01T04:50:47.635Z,87.30
2019-05-01T04:51:47.641Z,87.30
2019-05-01T04:52:47.611Z,87.20
2019-05-01T04:53:47.619Z,87.30
2019-05-01T04:54:47.591Z,87.40
2019-05-01T04:55:47.583Z,87.10
2019-05-01T04:56:47.568Z,86.48
2019-05-01T04:57:47.564Z,85.55
2019-05-01T04:58:47.567Z,86.07
2019-05-01T04:59:47.539Z,85.97
2019-05-01T05:00:47.522Z,86.48
2019-05-01T05:01:47.518Z,86.38
2019-05-01T05:02:47.501Z,86.38
2019-05-01T05:03:47.508Z,85.72
2019-05-01T05:04:47.478Z,86.24
2019-05-01T05:05:47.472Z,85.93
2019-05-01T05:06:47.455Z,85.62
2019-05-01T05:07:47.451Z,86.33
2019-05-01T05:08:47.477Z,86.13
2019-05-01T05:09:47.430Z,86.24
2019-05-01T05:10:47.411Z,85.68
2019-05-01T05:11:47.404Z,85.31
2019-05-01T05:12:47.392Z,85.72
2019-05-01T05:13:47.400Z,85.62
2019-05-01T05:14:47.370Z,84.80
2019-05-01T05:15:47.375Z,85.00
2019-05-01T05:16:47.344Z,85.21
2019-05-01T05:17:47.345Z,85.72
2019-05-01T05:18:47.465Z,85.11
2019-05-01T05:19:47.348Z,85.72
2019-05-01T05:20:47.340Z,85.78
2019-05-01T05:21:47.327Z,85.41
2019-05-01T05:22:47.321Z,84.66
2019-05-01T05:23:47.323Z,84.86
2019-05-01T05:24:47.256Z,85.58
2019-05-01T05:25:47.252Z,85.27
2019-05-01T05:26:47.233Z,85.47
2019-05-01T05:27:47.227Z,85.38
2019-05-01T05:28:47.226Z,84.86
2019-05-01T05:29:47.204Z,85.38
2019-05-01T05:30:47.188Z,84.66
2019-05-01T05:31:47.189Z,84.55
2019-05-01T05:32:47.167Z,84.14
2019-05-01T05:33:47.173Z,84.25
2019-05-01T05:34:47.143Z,84.10
2019-05-01T05:35:47.137Z,84.20
2019-05-01T05:36:47.123Z,83.39
2019-05-01T05:37:47.118Z,84.27
2019-05-01T05:38:47.121Z,83.76
2019-05-01T05:39:47.092Z,84.06
2019-05-01T05:40:47.077Z,83.86
2019-05-01T05:41:47.075Z,82.63
2019-05-01T05:42:47.058Z,82.83
2019-05-01T05:43:47.313Z,82.93
2019-05-01T05:44:47.033Z,82.83
2019-05-01T05:45:47.025Z,83.25
2019-05-01T05:46:47.011Z,83.34
2019-05-01T05:47:47.005Z,82.53
2019-05-01T05:48:46.992Z,82.01
2019-05-01T05:49:47.002Z,82.93
2019-05-01T05:50:46.965Z,82.93
2019-05-01T05:51:46.958Z,82.73
2019-05-01T05:52:46.943Z,82.12
2019-05-01T05:53:46.936Z,82.42
2019-05-01T05:54:46.935Z,82.73
2019-05-01T05:55:46.913Z,82.12
2019-05-01T05:56:46.898Z,81.87
2019-05-01T05:57:46.891Z,81.87
2019-05-01T05:58:46.881Z,81.98
2019-05-01T05:59:46.892Z,81.46
2019-05-01T06:00:46.858Z,81.05
2019-05-01T06:01:46.847Z,80.54
2019-05-01T06:02:46.831Z,80.95
2019-05-01T06:03:46.828Z,80.44
2019-05-01T06:04:46.821Z,80.13
2019-05-01T06:05:46.810Z,80.64
2019-05-01T06:06:46.788Z,80.13
2019-05-01T06:07:46.779Z,80.64
2019-05-01T06:08:46.767Z,80.74
2019-05-01T06:09:48.564Z,80.33
2019-05-01T06:10:46.743Z,80.64
2019-05-01T06:11:46.735Z,80.60
2019-05-01T06:12:48.569Z,79.79
2019-05-01T06:13:46.713Z,79.68
2019-05-01T06:14:46.714Z,79.48
2019-05-01T06:15:49.068Z,79.38
2019-05-01T06:16:51.496Z,79.48
2019-05-01T06:17:47.670Z,79.58
2019-05-01T06:18:46.655Z,78.86
2019-05-01T06:19:49.712Z,78.76
2019-05-01T06:20:46.634Z,79.27
2019-05-01T06:21:46.627Z,79.48
2019-05-01T06:22:46.614Z,79.27
2019-05-01T06:23:46.611Z,79.38
2019-05-01T06:24:46.605Z,79.27
2019-05-01T06:25:46.587Z,79.96
2019-05-01T06:26:46.569Z,79.44
2019-05-01T06:27:49.323Z,79.54
2019-05-01T06:28:46.546Z,78.93
2019-05-01T06:29:46.554Z,79.44
2019-05-01T06:30:47.145Z,78.89
2019-05-01T06:31:46.518Z,79.13
2019-05-01T06:32:46.504Z,78.11
2019-05-01T06:33:48.670Z,78.63
2019-05-01T06:34:47.493Z,77.67
2019-05-01T06:35:46.474Z,77.67
2019-05-01T06:36:49.713Z,77.05
2019-05-01T06:37:46.457Z,77.05
2019-05-01T06:38:46.437Z,76.40
2019-05-01T06:39:48.153Z,75.62
2019-05-01T06:40:46.415Z,76.71
2019-05-01T06:41:46.408Z,76.50
2019-05-01T06:42:50.107Z,76.30
2019-05-01T06:43:46.384Z,76.26
2019-05-01T06:44:46.382Z,76.67
2019-05-01T06:45:46.863Z,75.85
2019-05-01T06:46:46.345Z,74.97
2019-05-01T06:47:46.337Z,76.40
2019-05-01T06:48:48.824Z,76.61
2019-05-01T06:49:47.368Z,76.20
2019-05-01T06:50:46.298Z,76.20
2019-05-01T06:51:47.941Z,76.37
2019-05-01T06:52:47.274Z,75.55
2019-05-01T06:53:46.270Z,76.71
2019-05-01T06:54:47.737Z,76.78
2019-05-01T06:55:47.244Z,75.96
2019-05-01T06:56:46.233Z,75.27
2019-05-01T06:57:46.227Z,75.96
2019-05-01T06:58:46.206Z,75.14
2019-05-01T06:59:46.214Z,74.49
2019-05-01T07:00:46.194Z,74.39
2019-05-01T07:01:46.189Z,74.49
2019-05-01T07:02:46.160Z,74.25
2019-05-01T07:04:02.884Z,73.94
2019-05-01T07:04:47.166Z,73.60
2019-05-01T07:05:49.000Z,72.79
2019-05-01T07:06:47.113Z,72.55
2019-05-01T07:07:48.232Z,71.97
2019-05-01T07:08:47.093Z,72.69
2019-05-01T07:09:49.367Z,72.69
2019-05-01T07:10:46.086Z,72.07
2019-05-01T07:11:47.481Z,71.84
2019-05-01T07:12:47.049Z,71.67
2019-05-01T07:13:46.047Z,71.02
2019-05-01T07:14:47.039Z,71.22
2019-05-01T07:15:46.032Z,70.47
2019-05-01T07:16:46.004Z,71.26
2019-05-01T07:17:47.924Z,70.92
2019-05-01T07:18:45.982Z,70.40
2019-05-01T07:19:45.976Z,69.69
2019-05-01T07:20:47.391Z,70.68
2019-05-01T07:21:46.952Z,69.35
2019-05-01T07:22:45.938Z,69.93
2019-05-01T07:23:47.782Z,69.22
2019-05-01T07:24:49.059Z,68.91
2019-05-01T07:25:45.924Z,66.82
2019-05-01T07:26:48.138Z,66.38
2019-05-01T07:27:45.886Z,64.96
2019-05-01T07:28:45.872Z,64.09
2019-05-01T07:29:46.656Z,62.37
2019-05-01T07:30:49.874Z,60.49
2019-05-01T07:31:46.834Z,59.43
2019-05-01T07:32:45.832Z,60.58
2019-05-01T07:33:47.153Z,59.12
2019-05-01T07:34:48.930Z,58.94
2019-05-01T07:35:45.806Z,58.23
2019-05-01T07:36:50.130Z,58.76
2019-05-01T07:37:46.773Z,57.60
2019-05-01T07:38:45.764Z,56.86
2019-05-01T07:39:49.800Z,56.02
2019-05-01T07:40:46.754Z,57.44
2019-05-01T07:41:45.725Z,56.63
2019-05-01T07:42:48.220Z,57.70
2019-05-01T07:43:45.702Z,58.06
2019-05-01T07:44:45.695Z,58.16
2019-05-01T07:45:45.694Z,58.94
2019-05-01T07:46:48.960Z,57.65
2019-05-01T07:47:46.659Z,55.62
2019-05-01T07:48:45.656Z,56.33
2019-05-01T07:49:47.859Z,56.71
2019-05-01T07:50:46.641Z,56.51
2019-05-01T07:51:45.613Z,55.98
2019-05-01T07:52:47.728Z,58.42
2019-05-01T07:53:46.589Z,60.10
2019-05-01T07:54:47.113Z,62.94
2019-05-01T07:55:48.567Z,61.32
2019-05-01T07:56:45.560Z,60.30
2019-05-01T07:57:45.544Z,59.10
2019-05-01T07:58:47.508Z,58.41
2019-05-01T07:59:46.519Z,57.70
2019-05-01T08:00:45.531Z,57.32
2019-05-01T08:01:45.499Z,57.27
2019-05-01T08:02:45.492Z,57.21
2019-05-01T08:03:45.476Z,56.78
2019-05-01T08:04:45.476Z,55.54
2019-05-01T08:05:46.754Z,56.46
2019-05-01T08:06:45.446Z,57.07
2019-05-01T08:07:45.431Z,57.44
2019-05-01T08:08:45.425Z,57.58
2019-05-01T08:09:45.851Z,58.85
2019-05-01T08:10:45.415Z,59.66
2019-05-01T08:11:45.582Z,58.82
2019-05-01T08:12:45.398Z,58.81
2019-05-01T08:13:45.364Z,57.75
2019-05-01T08:14:47.726Z,56.07
2019-05-01T08:15:46.358Z,55.85
2019-05-01T08:16:45.334Z,56.23
2019-05-01T08:17:48.852Z,55.54
2019-05-01T08:18:46.311Z,55.67
2019-05-01T08:19:45.299Z,55.11
2019-05-01T08:20:45.775Z,54.16
2019-05-01T08:21:45.279Z,53.52
2019-05-01T08:22:45.276Z,53.32
2019-05-01T08:23:47.166Z,51.97
2019-05-01T08:24:45.246Z,51.76
2019-05-01T08:25:45.258Z,51.64
2019-05-01T08:26:45.940Z,50.48
2019-05-01T08:27:45.285Z,53.09
2019-05-01T08:28:45.203Z,53.90
2019-05-01T08:29:45.188Z,54.56
2019-05-01T08:30:48.036Z,53.42
2019-05-01T08:31:46.182Z,51.76
2019-05-01T08:32:45.161Z,53.58
2019-05-01T08:33:49.825Z,53.09
2019-05-01T08:34:49.045Z,53.83
2019-05-01T08:35:45.120Z,52.26
2019-05-01T08:36:47.338Z,50.73
2019-05-01T08:37:45.108Z,50.63
2019-05-01T08:38:45.093Z,52.49
2019-05-01T08:39:45.954Z,50.68
2019-05-01T08:40:45.073Z,52.26
2019-05-01T08:41:45.068Z,51.51
2019-05-01T08:42:45.048Z,49.37
2019-05-01T08:43:48.886Z,49.68
2019-05-01T08:44:46.019Z,49.55
2019-05-01T08:45:45.024Z,51.73
2019-05-01T08:46:46.781Z,50.38
2019-05-01T08:47:45.996Z,49.02
2019-05-01T08:48:44.977Z,48.14
2019-05-01T08:49:49.515Z,52.29
2019-05-01T08:50:45.952Z,56.00
2019-05-01T08:51:44.964Z,57.09
2019-05-01T08:52:47.448Z,55.44
2019-05-01T08:53:44.926Z,52.89
2019-05-01T08:54:44.914Z,53.96
2019-05-01T08:55:46.920Z,57.69
2019-05-01T08:56:44.910Z,56.48
2019-05-01T08:57:44.881Z,52.72
2019-05-01T08:58:49.318Z,53.85
2019-05-01T08:59:45.859Z,54.38
2019-05-01T09:00:44.848Z,53.72
2019-05-01T09:01:45.863Z,53.20
2019-05-01T09:02:45.818Z,52.39
2019-05-01T09:03:44.816Z,53.34
2019-05-01T09:04:44.799Z,52.77
2019-05-01T09:05:44.794Z,51.21
2019-05-01T09:06:45.257Z,49.82
2019-05-01T09:07:44.903Z,50.57
2019-05-01T09:08:44.755Z,51.59
2019-05-01T09:09:45.862Z,51.71
2019-05-01T09:10:44.731Z,49.85
2019-05-01T09:11:44.740Z,49.85
2019-05-01T09:12:46.800Z,50.53
2019-05-01T09:13:44.703Z,50.28
2019-05-01T09:14:44.686Z,50.56
2019-05-01T09:15:48.266Z,49.91
2019-05-01T09:16:44.679Z,50.15
2019-05-01T09:17:44.659Z,49.48
2019-05-01T09:18:44.645Z,50.20
2019-05-01T09:19:44.642Z,51.66
2019-05-01T09:20:44.622Z,53.25
2019-05-01T09:21:44.628Z,50.68
2019-05-01T09:22:44.598Z,50.15
2019-05-01T09:23:46.278Z,49.80
2019-05-01T09:24:45.575Z,48.63
2019-05-01T09:25:44.576Z,47.45
2019-05-01T09:26:45.265Z,47.71
2019-05-01T09:27:45.546Z,47.25
2019-05-01T09:28:44.530Z,48.12
2019-05-01T09:29:46.952Z,49.16
2019-05-01T09:30:45.507Z,47.28
2019-05-01T09:31:44.519Z,47.36
2019-05-01T09:32:45.901Z,47.43
2019-05-01T09:33:45.480Z,48.93
2019-05-01T09:34:44.468Z,50.13
2019-05-01T09:35:45.220Z,51.29
2019-05-01T09:36:44.463Z,49.73
2019-05-01T09:37:44.435Z,48.55
2019-05-01T09:38:44.420Z,47.49
2019-05-01T09:39:47.170Z,45.94
2019-05-01T09:40:44.401Z,46.50
2019-05-01T09:41:47.584Z,47.39
2019-05-01T09:42:44.376Z,47.62
2019-05-01T09:43:44.370Z,50.96
2019-05-01T09:44:44.357Z,49.40
2019-05-01T09:45:44.348Z,48.63
2019-05-01T09:46:44.372Z,47.08
2019-05-01T09:47:44.326Z,46.44
2019-05-01T09:48:44.309Z,47.06
2019-05-01T09:49:44.304Z,46.94
2019-05-01T09:50:44.288Z,46.26
2019-05-01T09:51:47.652Z,46.81
2019-05-01T09:52:44.288Z,46.81
2019-05-01T09:53:44.269Z,46.97
2019-05-01T09:54:46.708Z,48.44
2019-05-01T09:55:44.240Z,49.30
2019-05-01T09:56:44.232Z,48.68
2019-05-01T09:57:44.234Z,48.68
2019-05-01T09:58:44.203Z,49.68
2019-05-01T09:59:44.201Z,49.13
2019-05-01T10:00:44.180Z,46.93
2019-05-01T10:01:44.175Z,47.88
2019-05-01T10:02:44.172Z,45.98
2019-05-01T10:03:44.990Z,45.76
2019-05-01T10:04:44.142Z,46.26
2019-05-01T10:05:44.299Z,45.50
2019-05-01T10:06:47.744Z,45.47
2019-05-01T10:07:45.122Z,46.39
2019-05-01T10:08:44.093Z,45.45
2019-05-01T10:09:47.217Z,43.37
2019-05-01T10:10:45.069Z,44.12
2019-05-01T10:11:44.078Z,46.24
2019-05-01T10:12:47.025Z,45.14
2019-05-01T10:13:44.042Z,44.64
2019-05-01T10:14:44.029Z,47.73
2019-05-01T10:15:44.017Z,46.58
2019-05-01T10:16:44.013Z,47.14
2019-05-01T10:17:44.012Z,46.34
2019-05-01T10:18:43.978Z,44.35
2019-05-01T10:19:43.972Z,47.14
2019-05-01T10:20:43.956Z,46.22
2019-05-01T10:21:43.960Z,46.94
2019-05-01T10:22:43.951Z,43.99
2019-05-01T10:23:47.026Z,46.22
2019-05-01T10:24:44.915Z,45.12
2019-05-01T10:25:47.934Z,45.05
2019-05-01T10:26:44.907Z,43.93
2019-05-01T10:27:43.896Z,42.81
2019-05-01T10:28:45.213Z,43.61
2019-05-01T10:29:44.857Z,43.21
2019-05-01T10:30:43.925Z,44.05
2019-05-01T10:31:46.623Z,45.13
2019-05-01T10:32:43.835Z,42.24
2019-05-01T10:33:43.816Z,42.43
2019-05-01T10:34:44.616Z,42.61
2019-05-01T10:35:43.795Z,42.19
2019-05-01T10:36:43.781Z,42.40
2019-05-01T10:37:43.788Z,42.65
2019-05-01T10:38:44.963Z,44.07
2019-05-01T10:39:43.753Z,43.87
2019-05-01T10:40:43.735Z,44.20
2019-05-01T10:41:46.320Z,43.79
2019-05-01T10:42:43.748Z,45.54
2019-05-01T10:43:43.708Z,45.94
2019-05-01T10:44:43.692Z,45.64
2019-05-01T10:45:43.693Z,45.34
2019-05-01T10:46:43.671Z,44.39
2019-05-01T10:47:43.665Z,44.17
2019-05-01T10:48:43.670Z,42.27
2019-05-01T10:49:43.643Z,45.15
2019-05-01T10:50:43.630Z,42.76
2019-05-01T10:51:43.622Z,44.20
2019-05-01T10:52:43.605Z,44.78
2019-05-01T10:53:43.616Z,43.63
2019-05-01T10:54:46.433Z,43.01
2019-05-01T10:55:43.578Z,44.61
2019-05-01T10:56:43.562Z,44.05
2019-05-01T10:57:43.561Z,43.21
2019-05-01T10:58:43.556Z,42.59
2019-05-01T10:59:43.543Z,42.61
2019-05-01T11:00:43.521Z,42.61
2019-05-01T11:01:43.513Z,43.39
2019-05-01T11:02:43.504Z,43.01
2019-05-01T11:03:43.510Z,42.40
2019-05-01T11:04:43.478Z,42.77
2019-05-01T11:05:55.278Z,43.25
2019-05-01T11:06:44.458Z,42.51
2019-05-01T11:07:43.452Z,41.39
2019-05-01T11:08:43.450Z,41.99
2019-05-01T11:09:43.429Z,40.60
2019-05-01T11:10:43.412Z,40.70
2019-05-01T11:11:43.407Z,42.21
2019-05-01T11:12:43.395Z,42.91
2019-05-01T11:13:43.398Z,41.80
2019-05-01T11:14:43.370Z,42.71
2019-05-01T11:15:43.389Z,43.69
2019-05-01T11:16:43.348Z,41.58
2019-05-01T11:17:43.341Z,43.19
2019-05-01T11:18:43.343Z,45.27
2019-05-01T11:19:43.325Z,44.45
2019-05-01T11:20:43.309Z,42.29
2019-05-01T11:21:43.299Z,42.05
2019-05-01T11:22:43.285Z,41.52
2019-05-01T11:23:43.300Z,40.32
2019-05-01T11:24:43.263Z,41.30
2019-05-01T11:25:44.717Z,42.51
2019-05-01T11:26:43.241Z,42.41
2019-05-01T11:27:43.235Z,41.61
2019-05-01T11:28:43.247Z,42.49
2019-05-01T11:29:43.213Z,45.38
2019-05-01T11:30:43.198Z,46.56
2019-05-01T11:31:43.197Z,45.21
2019-05-01T11:32:43.177Z,44.85
2019-05-01T11:33:43.170Z,44.91
2019-05-01T11:34:43.170Z,43.93
2019-05-01T11:35:43.152Z,44.69
2019-05-01T11:36:43.135Z,42.25
2019-05-01T11:37:43.131Z,41.33
2019-05-01T11:38:43.115Z,41.91
2019-05-01T11:39:43.119Z,39.70
2019-05-01T11:40:43.090Z,42.15
2019-05-01T11:41:43.085Z,41.44
2019-05-01T11:42:43.072Z,40.92
2019-05-01T11:43:43.069Z,41.44
2019-05-01T11:44:43.061Z,41.82
2019-05-01T11:45:43.041Z,39.83
2019-05-01T11:46:43.025Z,41.42
2019-05-01T11:47:43.018Z,40.82
2019-05-01T11:48:44.640Z,39.94
2019-05-01T11:49:43.012Z,42.61
2019-05-01T11:50:42.982Z,42.10
2019-05-01T11:51:42.975Z,42.29
2019-05-01T11:52:42.960Z,43.40
2019-05-01T11:53:42.953Z,45.42
2019-05-01T11:54:43.004Z,45.25
2019-05-01T11:55:42.935Z,44.59
2019-05-01T11:56:42.917Z,42.18
2019-05-01T11:57:42.910Z,42.53
2019-05-01T11:58:42.897Z,41.28
2019-05-01T11:59:42.903Z,41.06
2019-05-01T12:00:42.875Z,40.60
2019-05-01T12:01:42.867Z,41.71
2019-05-01T12:02:42.851Z,42.13
2019-05-01T12:03:42.844Z,39.84
2019-05-01T12:04:42.844Z,41.03
2019-05-01T12:05:42.826Z,41.25
2019-05-01T12:06:42.810Z,42.45
2019-05-01T12:07:42.801Z,41.66
2019-05-01T12:08:42.785Z,44.41
2019-05-01T12:09:42.794Z,42.33
2019-05-01T12:10:42.765Z,42.51
2019-05-01T12:11:42.761Z,41.47
2019-05-01T12:12:42.742Z,40.96
2019-05-01T12:13:44.002Z,40.56
2019-05-01T12:14:42.735Z,40.74
2019-05-01T12:15:42.714Z,40.00
2019-05-01T12:16:42.699Z,42.33
2019-05-01T12:17:42.702Z,41.12
2019-05-01T12:18:42.679Z,40.60
2019-05-01T12:19:42.685Z,41.77
2019-05-01T12:20:42.660Z,40.80
2019-05-01T12:21:42.649Z,41.02
2019-05-01T12:22:42.668Z,41.20
2019-05-01T12:23:42.628Z,39.89
2019-05-01T12:24:42.630Z,39.78
2019-05-01T12:25:42.610Z,41.09
2019-05-01T12:26:42.591Z,41.12
2019-05-01T12:27:42.587Z,41.52
2019-05-01T12:28:42.569Z,40.42
2019-05-01T12:29:42.578Z,41.46
2019-05-01T12:30:42.549Z,42.15
2019-05-01T12:31:42.542Z,40.64
2019-05-01T12:32:42.526Z,41.55
2019-05-01T12:33:42.520Z,41.63
2019-05-01T12:34:42.538Z,42.53
2019-05-01T12:35:42.506Z,42.51
2019-05-01T12:36:42.483Z,41.77
2019-05-01T12:37:42.476Z,39.76
2019-05-01T12:38:42.463Z,40.16
2019-05-01T12:39:42.457Z,41.42
2019-05-01T12:40:42.456Z,40.82
2019-05-01T12:41:42.439Z,41.75
2019-05-01T12:42:42.418Z,41.14
2019-05-01T12:43:42.413Z,42.59
2019-05-01T12:44:42.397Z,43.99
2019-05-01T12:45:42.409Z,45.31
2019-05-01T12:46:42.379Z,44.19
2019-05-01T12:47:42.374Z,42.29
2019-05-01T12:48:42.354Z,43.05
2019-05-01T12:49:42.348Z,43.07
2019-05-01T12:50:42.346Z,44.02
2019-05-01T12:51:42.327Z,41.24
2019-05-01T12:52:42.314Z,41.55